Time;durP1;ratioP1;P1;durP2;ratioP2;P2;SDS_P1;SDS_P2;PMS_P1;PMS_P2;Temp;Humidity;BMP_temperature;BMP_pressure;BME280_temperature;BME280_humidity;BME280_pressure;Samples;Min_cycle;Max_cycle;Signal;HPM_P1;HPM_P2
2023/01/14 00:01:01;;;;;;;;;;;153.70;2252.80;;;;;;5037576;28;19909;-81
2023/01/14 00:03:27;;;;;;;;;;;153.70;2252.80;;;;;;5037311;28;19905;-81
2023/01/14 00:05:54;;;;;;;;;;;153.90;2252.80;;;;;;5037327;28;19916;-79
2023/01/14 00:08:19;;;;;;;;;;;153.90;2252.80;;;;;;5032548;28;19905;-82
2023/01/14 00:10:45;;;;;;;;;;;154.10;2252.80;;;;;;5034141;28;19905;-81
2023/01/14 00:13:10;;;;;;;;;;;154.20;2252.80;;;;;;5037579;28;19911;-79
2023/01/14 00:15:36;;;;;;;;;;;154.20;2252.80;;;;;;5037003;28;19911;-81
2023/01/14 00:18:01;;;;;;;;;;;154.20;2252.80;;;;;;5036785;28;19909;-81
2023/01/14 00:20:30;;;;;;;;;;;154.30;2252.80;;;;;;5036999;28;20008;-79
2023/01/14 00:22:55;;;;;;;;;;;154.30;2252.80;;;;;;5037279;28;20058;-82
2023/01/14 00:25:21;;;;;;;;;;;154.30;2252.80;;;;;;5036952;28;20418;-81
2023/01/14 00:27:46;;;;;;;;;;;154.30;2252.80;;;;;;5038557;28;19911;-81
2023/01/14 00:30:12;;;;;;;;;;;154.30;2252.80;;;;;;5036937;28;19908;-81
2023/01/14 00:32:37;;;;;;;;;;;154.30;2252.80;;;;;;5036946;28;19905;-82
2023/01/14 00:35:03;;;;;;;;;;;154.30;2252.80;;;;;;5054642;28;19905;-82
2023/01/14 00:37:29;;;;;;;;;;;154.20;2252.80;;;;;;5037277;28;19908;-82
2023/01/14 00:39:54;;;;;;;;;;;154.20;2252.80;;;;;;5036012;28;19975;-81
2023/01/14 00:42:20;;;;;;;;;;;154.20;2252.80;;;;;;5036511;28;19908;-81
2023/01/14 00:44:46;;;;;;;;;;;154.20;2252.80;;;;;;5036838;28;19904;-81
2023/01/14 00:47:11;;;;;;;;;;;154.20;2252.80;;;;;;5036868;28;19905;-81
2023/01/14 00:49:37;;;;;;;;;;;154.20;2252.80;;;;;;5037030;28;19905;-81
2023/01/14 00:52:03;;;;;;;;;;;154.30;2252.80;;;;;;5037506;28;19915;-79
2023/01/14 00:54:28;;;;;;;;;;;154.20;2252.80;;;;;;5037913;28;19908;-81
2023/01/14 00:56:54;;;;;;;;;;;154.30;2252.80;;;;;;5036394;28;19916;-80
2023/01/14 00:59:23;;;;;;;;;;;154.30;2252.80;;;;;;5035818;28;19913;-82
2023/01/14 01:01:51;;;;;;;;;;;154.20;2252.80;;;;;;5033895;28;20031;-81
2023/01/14 01:04:17;;;;;;;;;;;154.30;2252.80;;;;;;5036561;28;20358;-81
2023/01/14 01:06:43;;;;;;;;;;;154.20;2252.80;;;;;;5036762;28;19916;-80
2023/01/14 01:09:09;;;;;;;;;;;154.30;2252.80;;;;;;5036272;28;19916;-81
2023/01/14 01:11:34;;;;;;;;;;;154.10;2252.80;;;;;;5036677;28;19944;-81
2023/01/14 01:14:00;;;;;;;;;;;154.00;2252.80;;;;;;5041730;28;19904;-82
2023/01/14 01:16:25;;;;;;;;;;;153.90;2252.80;;;;;;5036282;28;20003;-81
2023/01/14 01:18:52;;;;;;;;;;;154.10;2252.80;;;;;;5036266;28;19970;-81
2023/01/14 01:21:18;;;;;;;;;;;154.10;2252.80;;;;;;5036601;28;19904;-81
2023/01/14 01:23:45;;;;;;;;;;;154.10;2252.80;;;;;;5036005;28;19904;-81
2023/01/14 01:26:12;;;;;;;;;;;154.10;2252.80;;;;;;5035362;28;19964;-81
2023/01/14 01:28:37;;;;;;;;;;;154.00;2252.80;;;;;;5036542;28;20347;-81
2023/01/14 01:31:04;;;;;;;;;;;154.00;2252.80;;;;;;5053824;28;19911;-79
2023/01/14 01:33:30;;;;;;;;;;;154.10;2252.80;;;;;;5035719;28;19957;-81
2023/01/14 01:36:00;;;;;;;;;;;154.10;2252.80;;;;;;5054012;28;19988;-81
2023/01/14 01:38:25;;;;;;;;;;;154.20;2252.80;;;;;;5027950;28;19905;-80
2023/01/14 01:40:51;;;;;;;;;;;154.20;2252.80;;;;;;5036540;28;20381;-81
2023/01/14 01:43:18;;;;;;;;;;;154.20;2252.80;;;;;;5036352;28;19958;-81
2023/01/14 01:45:44;;;;;;;;;;;154.20;2252.80;;;;;;5035795;28;19908;-80
2023/01/14 01:48:16;;;;;;;;;;;154.10;2252.80;;;;;;5033802;28;19947;-81
2023/01/14 01:50:44;;;;;;;;;;;154.10;2252.80;;;;;;5032014;28;19912;-81
2023/01/14 01:53:10;;;;;;;;;;;154.00;2252.80;;;;;;5034905;28;19904;-81
2023/01/14 01:55:38;;;;;;;;;;;153.90;2252.80;;;;;;5035606;28;19984;-82
2023/01/14 01:58:04;;;;;;;;;;;154.00;2252.80;;;;;;5035416;28;20290;-81
2023/01/14 02:00:30;;;;;;;;;;;154.00;2252.80;;;;;;5037060;28;19914;-81
2023/01/14 02:02:57;;;;;;;;;;;153.90;2252.80;;;;;;5031086;28;19912;-81
2023/01/14 02:05:22;;;;;;;;;;;153.80;2252.80;;;;;;5035461;28;19947;-82
2023/01/14 02:07:48;;;;;;;;;;;153.90;2252.80;;;;;;5035661;28;19908;-82
2023/01/14 02:10:14;;;;;;;;;;;153.90;2252.80;;;;;;5034974;28;19924;-80
2023/01/14 02:12:55;;;;;;;;;;;153.90;2252.80;;;;;;5034303;28;20478;-81
2023/01/14 02:15:54;;;;;;;;;;;153.90;2252.80;;;;;;5021853;28;19905;-81
2023/01/14 02:18:39;;;;;;;;;;;153.90;2252.80;;;;;;4971930;28;20349;-81
2023/01/14 02:21:25;;;;;;;;;;;153.80;2252.80;;;;;;4955408;28;19961;-81
2023/01/14 02:24:06;;;;;;;;;;;153.70;2252.80;;;;;;4971561;28;19906;-81
2023/01/14 02:26:41;;;;;;;;;;;153.90;2252.80;;;;;;4974857;28;20005;-80
2023/01/14 02:29:25;;;;;;;;;;;153.90;2252.80;;;;;;4960549;28;19997;-82
2023/01/14 02:32:14;;;;;;;;;;;153.90;2252.80;;;;;;4956075;28;19906;-81
2023/01/14 02:34:51;;;;;;;;;;;153.90;2252.80;;;;;;4896333;29;20014;-81
2023/01/14 02:37:22;;;;;;;;;;;153.90;2252.80;;;;;;4899458;29;19908;-81
2023/01/14 02:40:00;;;;;;;;;;;154.00;2252.80;;;;;;4899314;29;19959;-81
2023/01/14 02:45:19;;;;;;;;;;;153.70;2252.80;;;;;;4900381;29;19922;-79
2023/01/14 02:47:46;;;;;;;;;;;128.80;2252.80;;;;;;4902418;29;20003;-81
2023/01/14 02:50:12;;;;;;;;;;;128.70;2252.80;;;;;;4902280;29;19907;-81
2023/01/14 02:52:37;;;;;;;;;;;128.70;2252.80;;;;;;4899938;29;19971;-79
2023/01/14 02:55:23;;;;;;;;;;;128.90;2252.80;;;;;;4973637;28;19906;-80
2023/01/14 02:58:07;;;;;;;;;;;153.60;2252.80;;;;;;4975357;28;19922;-79
2023/01/14 03:00:49;;;;;;;;;;;153.60;2252.80;;;;;;4959234;28;20057;-81
2023/01/14 03:03:21;;;;;;;;;;;153.70;2252.80;;;;;;4959591;28;19906;-82
2023/01/14 03:06:05;;;;;;;;;;;153.70;2252.80;;;;;;4955705;28;19906;-81
2023/01/14 03:08:38;;;;;;;;;;;153.60;2252.80;;;;;;4975682;28;19969;-81
2023/01/14 03:11:05;;;;;;;;;;;128.90;2252.80;;;;;;4977438;28;20396;-82
2023/01/14 03:13:37;;;;;;;;;;;128.90;2252.80;;;;;;5038148;28;19904;-81
2023/01/14 03:16:12;;;;;;;;;;;153.60;2252.80;;;;;;5029864;28;19908;-79
2023/01/14 03:18:43;;;;;;;;;;;153.70;2252.80;;;;;;5055595;28;19911;-80
2023/01/14 03:21:17;;;;;;;;;;;153.80;2252.80;;;;;;5032883;28;19912;-82
2023/01/14 03:23:46;;;;;;;;;;;153.80;2252.80;;;;;;5038430;28;19943;-79
2023/01/14 03:26:12;;;;;;;;;;;128.90;2252.80;;;;;;5055968;28;19916;-82
2023/01/14 03:28:40;;;;;;;;;;;128.90;2252.80;;;;;;5055868;28;19912;-81
2023/01/14 03:31:08;;;;;;;;;;;128.90;2252.80;;;;;;5055766;28;19911;-81
2023/01/14 03:33:35;;;;;;;;;;;128.90;2252.80;;;;;;5038211;28;19912;-81
2023/01/14 03:36:01;;;;;;;;;;;128.90;2252.80;;;;;;5055706;28;19915;-81
2023/01/14 03:38:30;;;;;;;;;;;153.80;2252.80;;;;;;5055814;28;19905;-81
2023/01/14 03:40:57;;;;;;;;;;;128.40;2252.80;;;;;;5029881;28;19913;-81
2023/01/14 03:43:29;;;;;;;;;;;128.10;2252.80;;;;;;5055647;28;19931;-80
2023/01/14 03:45:55;;;;;;;;;;;103.30;2227.20;;;;;;5035098;28;19987;-80
2023/01/14 03:48:20;;;;;;;;;;;103.30;2227.20;;;;;;5037763;28;19912;-81
2023/01/14 03:50:52;;;;;;;;;;;103.20;2227.20;;;;;;5036587;28;19905;-81
2023/01/14 03:53:27;;;;;;;;;;;103.20;2227.20;;;;;;5032621;28;19905;-81
2023/01/14 03:55:59;;;;;;;;;;;103.30;2227.20;;;;;;5029527;28;19908;-81
2023/01/14 03:58:26;;;;;;;;;;;103.30;2227.20;;;;;;5055423;28;19920;-80
2023/01/14 04:00:53;;;;;;;;;;;128.00;2252.80;;;;;;5037976;28;19919;-80
2023/01/14 04:03:19;;;;;;;;;;;128.00;2252.80;;;;;;5035234;28;19905;-79
2023/01/14 04:05:45;;;;;;;;;;;128.00;2252.80;;;;;;5037929;28;19905;-81
2023/01/14 04:08:11;;;;;;;;;;;128.00;2252.80;;;;;;5037800;28;19967;-80
2023/01/14 04:10:36;;;;;;;;;;;128.10;2252.80;;;;;;5037445;28;19958;-81
2023/01/14 04:15:46;;;;;;;;;;;128.10;2252.80;;;;;;5053763;28;19958;-81
2023/01/14 04:18:12;;;;;;;;;;;103.30;2227.20;;;;;;5037055;28;19908;-81
2023/01/14 04:20:37;;;;;;;;;;;128.00;2252.80;;;;;;5055055;28;19913;-81
2023/01/14 04:23:03;;;;;;;;;;;128.00;2252.80;;;;;;5037449;28;19962;-80
2023/01/14 04:25:28;;;;;;;;;;;128.20;2252.80;;;;;;5036392;28;19909;-81
2023/01/14 04:27:54;;;;;;;;;;;128.20;2252.80;;;;;;5036806;28;19904;-82
2023/01/14 04:30:19;;;;;;;;;;;128.40;2252.80;;;;;;5037476;28;19905;-81
2023/01/14 04:32:45;;;;;;;;;;;128.50;2252.80;;;;;;5036685;28;19904;-81
2023/01/14 04:35:11;;;;;;;;;;;128.70;2252.80;;;;;;5037308;28;19904;-81
2023/01/14 04:37:36;;;;;;;;;;;128.60;2252.80;;;;;;5036774;28;19916;-82
2023/01/14 04:40:02;;;;;;;;;;;128.60;2252.80;;;;;;5036775;28;19927;-80
2023/01/14 04:42:28;;;;;;;;;;;128.60;2252.80;;;;;;5031591;28;19905;-81
2023/01/14 04:44:54;;;;;;;;;;;128.60;2252.80;;;;;;5037025;28;19962;-82
2023/01/14 04:47:20;;;;;;;;;;;128.50;2252.80;;;;;;5036556;28;20354;-81
2023/01/14 04:49:45;;;;;;;;;;;128.50;2252.80;;;;;;5028886;28;19967;-82
2023/01/14 04:52:11;;;;;;;;;;;128.80;2252.80;;;;;;5037111;28;19905;-81
2023/01/14 04:54:36;;;;;;;;;;;128.90;2252.80;;;;;;5054364;28;19905;-81
2023/01/14 04:57:03;;;;;;;;;;;153.80;2252.80;;;;;;5025580;28;19974;-78
2023/01/14 04:59:29;;;;;;;;;;;153.90;2252.80;;;;;;5013483;28;20007;-81
2023/01/14 05:01:54;;;;;;;;;;;153.90;2252.80;;;;;;5013404;28;20350;-80
2023/01/14 05:04:20;;;;;;;;;;;154.10;2252.80;;;;;;5013465;28;20360;-81
2023/01/14 05:06:45;;;;;;;;;;;154.00;2252.80;;;;;;5013468;28;19909;-81
2023/01/14 05:09:11;;;;;;;;;;;153.90;2252.80;;;;;;5013464;28;19949;-79
2023/01/14 05:11:37;;;;;;;;;;;153.90;2252.80;;;;;;5013422;28;19960;-81
2023/01/14 05:14:02;;;;;;;;;;;153.80;2252.80;;;;;;5012392;28;19909;-81
2023/01/14 05:16:28;;;;;;;;;;;128.90;2252.80;;;;;;5012635;28;20279;-78
2023/01/14 05:18:54;;;;;;;;;;;128.90;2252.80;;;;;;5012617;28;19963;-79
2023/01/14 05:21:20;;;;;;;;;;;128.70;2252.80;;;;;;5012652;28;19905;-78
2023/01/14 05:23:45;;;;;;;;;;;128.70;2252.80;;;;;;5012524;28;19910;-78
2023/01/14 05:26:11;;;;;;;;;;;128.70;2252.80;;;;;;5012242;28;20012;-78
2023/01/14 05:28:37;;;;;;;;;;;128.90;2252.80;;;;;;5012529;28;19959;-78
2023/01/14 05:31:05;;;;;;;;;;;153.80;2252.80;;;;;;5012412;28;20414;-78
2023/01/14 05:33:31;;;;;;;;;;;153.90;2252.80;;;;;;5012597;28;20267;-78
2023/01/14 05:35:58;;;;;;;;;;;154.10;2252.80;;;;;;5012299;28;19905;-79
2023/01/14 05:38:24;;;;;;;;;;;154.20;2252.80;;;;;;5012310;28;20087;-79
2023/01/14 05:40:50;;;;;;;;;;;154.30;2252.80;;;;;;5012290;28;19913;-79
2023/01/14 05:46:04;;;;;;;;;;;154.50;2252.80;;;;;;5013961;28;20302;-82
2023/01/14 05:48:30;;;;;;;;;;;154.20;2252.80;;;;;;5011843;28;19905;-80
2023/01/14 05:50:57;;;;;;;;;;;154.40;2252.80;;;;;;5012469;28;20283;-80
2023/01/14 05:53:23;;;;;;;;;;;154.30;2252.80;;;;;;5012098;28;19991;-78
2023/01/14 05:55:49;;;;;;;;;;;154.10;2252.80;;;;;;5011977;28;19912;-81
2023/01/14 05:58:15;;;;;;;;;;;154.20;2252.80;;;;;;5028558;28;19928;-79
2023/01/14 06:06:29;;;;;;;;;;;154.10;2252.80;;;;;;5033866;28;19911;-77
2023/01/14 06:08:56;;;;;;;;;;;154.10;2252.80;;;;;;5025878;28;19913;-78
2023/01/14 06:11:22;;;;;;;;;;;154.20;2252.80;;;;;;5032060;28;19936;-79
2023/01/14 06:13:49;;;;;;;;;;;154.30;2252.80;;;;;;5034614;28;20366;-78
2023/01/14 06:16:15;;;;;;;;;;;154.20;2252.80;;;;;;5036059;28;20322;-82
2023/01/14 06:18:43;;;;;;;;;;;154.30;2252.80;;;;;;5036645;28;19945;-78
2023/01/14 06:21:13;;;;;;;;;;;154.20;2252.80;;;;;;5035876;28;19909;-78
2023/01/14 06:23:39;;;;;;;;;;;154.10;2252.80;;;;;;5037136;28;19912;-78
2023/01/14 06:26:08;;;;;;;;;;;154.10;2252.80;;;;;;5035901;28;19905;-78
2023/01/14 06:28:34;;;;;;;;;;;154.30;2252.80;;;;;;5035431;28;19908;-77
2023/01/14 06:30:59;;;;;;;;;;;154.40;2252.80;;;;;;5035787;28;19958;-81
2023/01/14 06:33:25;;;;;;;;;;;154.30;2252.80;;;;;;5037033;28;19935;-78
2023/01/14 06:35:50;;;;;;;;;;;154.30;2252.80;;;;;;5035726;28;19905;-82
2023/01/14 06:38:16;;;;;;;;;;;154.40;2252.80;;;;;;5034293;28;19916;-83
2023/01/14 06:40:42;;;;;;;;;;;154.40;2252.80;;;;;;5035465;28;19913;-78
2023/01/14 06:43:08;;;;;;;;;;;154.40;2252.80;;;;;;5034045;28;20359;-78
2023/01/14 06:45:34;;;;;;;;;;;154.50;2252.80;;;;;;5033129;28;20028;-78
2023/01/14 06:48:00;;;;;;;;;;;179.20;2252.80;;;;;;5033845;28;19905;-85
2023/01/14 06:50:26;;;;;;;;;;;179.30;2252.80;;;;;;5040263;28;20406;-84
2023/01/14 06:52:54;;;;;;;;;;;154.50;2252.80;;;;;;5014026;28;19928;-85
2023/01/14 06:55:20;;;;;;;;;;;179.20;2252.80;;;;;;5037720;28;19951;-85
2023/01/14 06:57:47;;;;;;;;;;;154.50;2252.80;;;;;;5019070;28;19917;-89
2023/01/14 07:00:13;;;;;;;;;;;179.20;2252.80;;;;;;5018362;28;19935;-81
2023/01/14 07:02:39;;;;;;;;;;;179.20;2252.80;;;;;;5037914;28;20363;-84
2023/01/14 07:05:05;;;;;;;;;;;179.30;2252.80;;;;;;5017734;28;19905;-85
2023/01/14 07:07:30;;;;;;;;;;;179.30;2252.80;;;;;;5018033;28;20424;-83
2023/01/14 07:09:56;;;;;;;;;;;179.30;2252.80;;;;;;5018081;28;20027;-85
2023/01/14 07:12:22;;;;;;;;;;;179.30;2252.80;;;;;;5017147;28;19909;-80
2023/01/14 07:14:47;;;;;;;;;;;179.30;2252.80;;;;;;5040018;28;20007;-82
2023/01/14 07:17:13;;;;;;;;;;;179.40;2252.80;;;;;;5021069;28;19967;-81
2023/01/14 07:19:38;;;;;;;;;;;179.40;2252.80;;;;;;5041827;28;19983;-93
2023/01/14 07:22:04;;;;;;;;;;;179.30;2252.80;;;;;;5043819;28;19920;-91
2023/01/14 07:24:29;;;;;;;;;;;179.40;2252.80;;;;;;5044201;28;19912;-85
2023/01/14 07:26:55;;;;;;;;;;;179.40;2252.80;;;;;;5019507;28;19913;-84
2023/01/14 07:29:21;;;;;;;;;;;179.30;2252.80;;;;;;5036108;28;19905;-85
2023/01/14 07:31:46;;;;;;;;;;;179.40;2252.80;;;;;;5018374;28;19911;-90
2023/01/14 07:34:12;;;;;;;;;;;179.50;2252.80;;;;;;5023694;28;19966;-88
2023/01/14 07:36:37;;;;;;;;;;;179.60;2252.80;;;;;;5021031;28;19912;-92
2023/01/14 07:39:03;;;;;;;;;;;179.40;2252.80;;;;;;5021132;28;20014;-89
2023/01/14 07:41:28;;;;;;;;;;;179.40;2252.80;;;;;;5041845;28;19909;-86
2023/01/14 07:43:54;;;;;;;;;;;179.50;2252.80;;;;;;5035731;28;20364;-89
2023/01/14 07:46:19;;;;;;;;;;;179.50;2252.80;;;;;;5017039;28;19905;-88
2023/01/14 07:48:45;;;;;;;;;;;179.60;2252.80;;;;;;5040138;28;19931;-85
2023/01/14 07:51:12;;;;;;;;;;;179.70;2252.80;;;;;;5019775;28;19905;-86
2023/01/14 07:53:38;;;;;;;;;;;179.60;2252.80;;;;;;5046774;28;19996;-81
2023/01/14 07:56:04;;;;;;;;;;;179.70;2252.80;;;;;;5019771;28;19955;-81
2023/01/14 07:58:30;;;;;;;;;;;179.80;2252.80;;;;;;5018536;28;19940;-86
2023/01/14 08:00:56;;;;;;;;;;;179.80;2252.80;;;;;;5019755;28;19917;-82
2023/01/14 08:03:22;;;;;;;;;;;179.90;2252.80;;;;;;5037143;28;20442;-80
2023/01/14 08:05:47;;;;;;;;;;;180.00;2252.80;;;;;;5017663;28;19905;-76
2023/01/14 08:08:13;;;;;;;;;;;179.90;2252.80;;;;;;5009436;28;20374;-78
2023/01/14 08:10:39;;;;;;;;;;;180.00;2252.80;;;;;;5016640;28;19912;-78
2023/01/14 08:13:05;;;;;;;;;;;180.00;2252.80;;;;;;5017007;28;19905;-82
2023/01/14 08:15:30;;;;;;;;;;;179.90;2252.80;;;;;;5017572;28;20422;-82
2023/01/14 08:17:56;;;;;;;;;;;180.00;2252.80;;;;;;5017494;28;19966;-78
2023/01/14 08:20:22;;;;;;;;;;;180.10;2252.80;;;;;;5017815;28;19920;-84
2023/01/14 08:23:06;;;;;;;;;;;180.10;2252.80;;;;;;5018872;28;19905;-83
2023/01/14 08:25:31;;;;;;;;;;;204.80;2252.80;;;;;;5018887;28;19912;-80
2023/01/14 08:27:57;;;;;;;;;;;204.80;2252.80;;;;;;5022532;28;19905;-81
2023/01/14 08:30:23;;;;;;;;;;;204.90;2252.80;;;;;;5019618;28;19912;-83
2023/01/14 08:32:48;;;;;;;;;;;204.90;2252.80;;;;;;5023185;28;19912;-82
2023/01/14 08:35:14;;;;;;;;;;;205.00;2252.80;;;;;;5020216;28;19905;-82
2023/01/14 08:37:41;;;;;;;;;;;205.20;2252.80;;;;;;5019622;28;19951;-85
2023/01/14 08:40:07;;;;;;;;;;;205.10;2252.80;;;;;;5019482;28;20366;-85
2023/01/14 08:42:32;;;;;;;;;;;205.00;2252.80;;;;;;5017381;28;19905;-79
2023/01/14 08:44:58;;;;;;;;;;;205.10;2252.80;;;;;;5018718;28;19927;-82
2023/01/14 08:47:24;;;;;;;;;;;205.10;2252.80;;;;;;5017333;28;19905;-82
2023/01/14 08:49:49;;;;;;;;;;;205.10;2252.80;;;;;;5016116;28;19912;-81
2023/01/14 08:52:15;;;;;;;;;;;205.20;2252.80;;;;;;5021841;28;19973;-87
2023/01/14 08:54:40;;;;;;;;;;;205.20;2252.80;;;;;;5016429;28;19905;-85
2023/01/14 08:57:06;;;;;;;;;;;205.10;2252.80;;;;;;5019338;28;20429;-81
2023/01/14 08:59:31;;;;;;;;;;;205.20;2252.80;;;;;;5036325;28;19920;-87
2023/01/14 09:01:57;;;;;;;;;;;205.20;2252.80;;;;;;5043309;28;19905;-80
2023/01/14 09:04:24;;;;;;;;;;;205.20;2252.80;;;;;;5033821;28;19954;-82
2023/01/14 09:17:55;;;;;;;;;;;205.20;2252.80;;;;;;5040160;28;19992;-89
2023/01/14 09:20:30;;;;;;;;;;;205.30;2252.80;;;;;;5038975;28;20003;-86
2023/01/14 09:22:55;;;;;;;;;;;205.30;2252.80;;;;;;5043817;28;19905;-84
2023/01/14 09:25:21;;;;;;;;;;;205.20;2252.80;;;;;;5018585;28;20015;-91
2023/01/14 09:27:47;;;;;;;;;;;205.20;2252.80;;;;;;5042516;28;19999;-87
2023/01/14 09:30:12;;;;;;;;;;;205.20;2252.80;;;;;;5038603;28;20363;-81
2023/01/14 09:32:39;;;;;;;;;;;205.00;2252.80;;;;;;5035256;28;20307;-84
2023/01/14 09:35:05;;;;;;;;;;;205.10;2252.80;;;;;;5018163;28;19912;-80
2023/01/14 09:37:33;;;;;;;;;;;205.10;2252.80;;;;;;5016057;28;19966;-83
2023/01/14 09:39:59;;;;;;;;;;;205.20;2252.80;;;;;;5045723;28;19944;-77
2023/01/14 09:42:27;;;;;;;;;;;205.20;2252.80;;;;;;5035710;28;20347;-77
2023/01/14 09:44:57;;;;;;;;;;;205.30;2252.80;;;;;;5017131;28;19995;-79
2023/01/14 09:47:23;;;;;;;;;;;205.50;2252.80;;;;;;5026227;28;20355;-77
2023/01/14 09:49:49;;;;;;;;;;;205.50;2252.80;;;;;;5019428;28;19955;-80
2023/01/14 09:52:24;;;;;;;;;;;205.30;2252.80;;;;;;5018699;28;19911;-81
2023/01/14 09:54:52;;;;;;;;;;;205.40;2252.80;;;;;;5019486;28;19905;-76
2023/01/14 09:57:21;;;;;;;;;;;205.50;2252.80;;;;;;5016642;28;20423;-79
2023/01/14 10:00:01;;;;;;;;;;;205.60;2252.80;;;;;;5012852;28;20074;-78
2023/01/14 10:02:34;;;;;;;;;;;205.60;2252.80;;;;;;5027592;28;19995;-78
2023/01/14 10:05:18;;;;;;;;;;;205.70;2252.80;;;;;;5027123;28;19958;-78
2023/01/14 10:07:44;;;;;;;;;;;205.60;2252.80;;;;;;5037224;28;19931;-79
2023/01/14 10:10:18;;;;;;;;;;;205.70;2252.80;;;;;;5038976;28;19952;-79
2023/01/14 10:12:45;;;;;;;;;;;205.70;2252.80;;;;;;5032126;28;19916;-78
2023/01/14 10:15:49;;;;;;;;;;;230.50;2252.80;;;;;;5041200;28;20022;-79
2023/01/14 10:18:26;;;;;;;;;;;230.60;2252.80;;;;;;4956902;29;19914;-81
2023/01/14 10:20:53;;;;;;;;;;;230.70;2252.80;;;;;;4945481;29;19914;-77
2023/01/14 10:23:24;;;;;;;;;;;230.80;2252.80;;;;;;4940305;29;19906;-79
2023/01/14 10:25:52;;;;;;;;;;;230.90;2252.80;;;;;;4956667;28;19946;-78
2023/01/14 10:28:20;;;;;;;;;;;230.70;2252.80;;;;;;4940242;29;19934;-79
2023/01/14 10:30:47;;;;;;;;;;;230.80;2252.80;;;;;;4956083;28;19906;-81
2023/01/14 10:33:14;;;;;;;;;;;230.80;2252.80;;;;;;4940469;29;19906;-74
2023/01/14 10:35:44;;;;;;;;;;;230.90;2252.80;;;;;;4956442;29;20013;-86
2023/01/14 10:38:17;;;;;;;;;;;230.60;2252.80;;;;;;4956939;29;19906;-81
2023/01/14 10:40:43;;;;;;;;;;;230.60;2252.80;;;;;;4939713;28;20368;-79
2023/01/14 10:43:17;;;;;;;;;;;205.70;2252.80;;;;;;4958725;28;19958;-78
2023/01/14 10:45:43;;;;;;;;;;;230.40;2252.80;;;;;;4939721;29;19911;-77
2023/01/14 10:48:14;;;;;;;;;;;230.40;2252.80;;;;;;4951513;28;19905;-78
2023/01/14 10:50:40;;;;;;;;;;;230.50;2252.80;;;;;;5051343;28;19912;-78
2023/01/14 10:53:19;;;;;;;;;;;230.60;2252.80;;;;;;5033961;28;19912;-78
2023/01/14 10:55:52;;;;;;;;;;;230.60;2252.80;;;;;;5034365;28;19911;-78
2023/01/14 10:58:29;;;;;;;;;;;230.50;2252.80;;;;;;5036560;28;19917;-78
2023/01/14 11:00:59;;;;;;;;;;;230.60;2252.80;;;;;;5055647;28;19935;-78
2023/01/14 11:03:29;;;;;;;;;;;230.60;2252.80;;;;;;5032320;28;20319;-79
2023/01/14 11:05:57;;;;;;;;;;;230.70;2252.80;;;;;;5037618;28;19992;-78
2023/01/14 11:08:26;;;;;;;;;;;230.70;2252.80;;;;;;5039294;28;19905;-78
2023/01/14 11:10:53;;;;;;;;;;;230.60;2252.80;;;;;;5053465;28;19911;-77
2023/01/14 11:13:24;;;;;;;;;;;230.70;2252.80;;;;;;5055633;28;19905;-77
2023/01/14 11:15:50;;;;;;;;;;;230.70;2252.80;;;;;;5055232;28;20003;-78
2023/01/14 11:18:18;;;;;;;;;;;230.70;2252.80;;;;;;5036216;28;20358;-77
2023/01/14 11:21:01;;;;;;;;;;;230.70;2252.80;;;;;;5029550;28;20061;-78
2023/01/14 11:23:40;;;;;;;;;;;230.70;2252.80;;;;;;5035385;28;19919;-77
2023/01/14 11:26:08;;;;;;;;;;;230.60;2252.80;;;;;;5035110;28;19904;-77
2023/01/14 11:28:38;;;;;;;;;;;230.60;2252.80;;;;;;5055408;28;19909;-77
2023/01/14 11:31:04;;;;;;;;;;;230.60;2252.80;;;;;;5036759;28;19909;-77
2023/01/14 11:33:32;;;;;;;;;;;230.60;2252.80;;;;;;5037133;28;20393;-77
2023/01/14 11:35:58;;;;;;;;;;;230.50;2252.80;;;;;;5032855;28;20422;-79
2023/01/14 11:38:26;;;;;;;;;;;230.50;2252.80;;;;;;5036261;28;19909;-76
2023/01/14 11:43:51;;;;;;;;;;;230.50;2252.80;;;;;;5055260;28;19974;-78
2023/01/14 11:46:17;;;;;;;;;;;230.50;2252.80;;;;;;5034547;28;20358;-78
2023/01/14 11:48:42;;;;;;;;;;;230.60;2252.80;;;;;;5036700;28;20026;-78
2023/01/14 11:51:18;;;;;;;;;;;230.70;2252.80;;;;;;5036625;28;19916;-77
2023/01/14 11:53:54;;;;;;;;;;;230.70;2252.80;;;;;;5052330;28;19912;-78
2023/01/14 11:56:31;;;;;;;;;;;230.70;2252.80;;;;;;5028151;28;19912;-78
2023/01/14 11:58:57;;;;;;;;;;;230.80;2252.80;;;;;;5054161;28;19936;-78
2023/01/14 12:01:26;;;;;;;;;;;230.80;2252.80;;;;;;5027400;28;19915;-77
2023/01/14 12:03:56;;;;;;;;;;;230.70;2252.80;;;;;;5036410;28;19904;-77
2023/01/14 12:06:23;;;;;;;;;;;230.60;2252.80;;;;;;5035855;28;19912;-78
2023/01/14 12:08:53;;;;;;;;;;;230.50;2252.80;;;;;;5035717;28;19920;-78
2023/01/14 12:11:22;;;;;;;;;;;230.60;2252.80;;;;;;5053103;28;20374;-78
2023/01/14 12:16:50;;;;;;;;;;;230.70;2252.80;;;;;;5054360;28;19916;-77
2023/01/14 12:19:22;;;;;;;;;;;230.70;2252.80;;;;;;5034842;28;19916;-77
2023/01/14 12:22:00;;;;;;;;;;;230.70;2252.80;;;;;;5053964;28;19905;-77
2023/01/14 12:24:28;;;;;;;;;;;230.60;2252.80;;;;;;5029011;28;19944;-77
2023/01/14 12:26:55;;;;;;;;;;;230.70;2252.80;;;;;;5034951;28;19909;-78
2023/01/14 12:29:29;;;;;;;;;;;230.70;2252.80;;;;;;5034475;28;19927;-77
2023/01/14 12:32:06;;;;;;;;;;;230.90;2252.80;;;;;;5035078;28;19900;-77
2023/01/14 12:34:37;;;;;;;;;;;231.00;2252.80;;;;;;5052519;28;19966;-76
2023/01/14 12:37:09;;;;;;;;;;;230.90;2252.80;;;;;;5032905;28;19912;-79
2023/01/14 12:48:02;;;;;;;;;;;230.80;2252.80;;;;;;5052276;28;20332;-77
2023/01/14 12:50:28;;;;;;;;;;;230.60;2252.80;;;;;;5035749;28;19936;-77
2023/01/14 12:52:54;;;;;;;;;;;230.70;2252.80;;;;;;5035394;28;19978;-77
2023/01/14 12:55:22;;;;;;;;;;;230.70;2252.80;;;;;;5035426;28;19920;-77
2023/01/14 12:57:49;;;;;;;;;;;230.70;2252.80;;;;;;5053036;28;19923;-78
2023/01/14 13:00:22;;;;;;;;;;;230.80;2252.80;;;;;;5053639;28;19912;-78
2023/01/14 13:02:52;;;;;;;;;;;230.90;2252.80;;;;;;5035297;28;19905;-78
2023/01/14 13:05:25;;;;;;;;;;;230.80;2252.80;;;;;;5049623;28;20323;-77
2023/01/14 13:07:52;;;;;;;;;;;230.60;2252.80;;;;;;5035458;28;20420;-78
2023/01/14 13:10:29;;;;;;;;;;;230.70;2252.80;;;;;;5053066;28;19917;-77
2023/01/14 13:12:55;;;;;;;;;;;230.70;2252.80;;;;;;5034703;28;19904;-78
2023/01/14 13:15:26;;;;;;;;;;;230.90;2252.80;;;;;;5034873;28;20281;-77
2023/01/14 13:17:53;;;;;;;;;;;230.90;2252.80;;;;;;5053199;28;19911;-78
2023/01/14 13:20:18;;;;;;;;;;;230.90;2252.80;;;;;;5034835;28;19994;-77
2023/01/14 13:22:46;;;;;;;;;;;230.90;2252.80;;;;;;5052855;28;19959;-77
2023/01/14 13:25:34;;;;;;;;;;;231.00;2252.80;;;;;;5052751;28;19951;-78
2023/01/14 13:28:20;;;;;;;;;;;231.10;2252.80;;;;;;5033727;28;19905;-76
2023/01/14 13:30:47;;;;;;;;;;;231.00;2252.80;;;;;;5052077;28;20003;-77
2023/01/14 13:33:16;;;;;;;;;;;230.90;2252.80;;;;;;5034304;28;20297;-76
2023/01/14 13:36:02;;;;;;;;;;;230.90;2252.80;;;;;;5051314;28;19912;-77
2023/01/14 13:38:29;;;;;;;;;;;231.00;2252.80;;;;;;5051739;28;20374;-76
2023/01/14 13:41:06;;;;;;;;;;;231.10;2252.80;;;;;;5034528;28;19920;-75
2023/01/14 13:43:37;;;;;;;;;;;231.10;2252.80;;;;;;5035203;28;20306;-77
2023/01/14 13:46:05;;;;;;;;;;;231.20;2252.80;;;;;;5034888;28;19904;-78
2023/01/14 13:48:38;;;;;;;;;;;231.30;2252.80;;;;;;5035128;28;19919;-79
2023/01/14 13:51:24;;;;;;;;;;;231.20;2252.80;;;;;;5049338;28;19936;-80
2023/01/14 13:53:53;;;;;;;;;;;231.20;2252.80;;;;;;5040467;28;19905;-80
2023/01/14 13:56:20;;;;;;;;;;;231.10;2252.80;;;;;;5036714;28;19928;-77
2023/01/14 13:58:48;;;;;;;;;;;231.20;2252.80;;;;;;5035470;28;20358;-78
2023/01/14 14:01:21;;;;;;;;;;;231.20;2252.80;;;;;;5052930;28;19963;-78
2023/01/14 14:03:47;;;;;;;;;;;231.10;2252.80;;;;;;5034838;28;20332;-78
2023/01/14 14:06:19;;;;;;;;;;;231.20;2252.80;;;;;;5035168;28;19905;-78
2023/01/14 14:09:00;;;;;;;;;;;231.10;2252.80;;;;;;5034925;28;19909;-77
2023/01/14 14:11:28;;;;;;;;;;;231.30;2252.80;;;;;;5030152;28;20352;-77
2023/01/14 14:14:07;;;;;;;;;;;231.10;2252.80;;;;;;5028593;28;19932;-78
2023/01/14 14:16:35;;;;;;;;;;;231.20;2252.80;;;;;;5035004;28;19962;-84
2023/01/14 14:19:07;;;;;;;;;;;231.20;2252.80;;;;;;5025225;28;19905;-78
2023/01/14 14:21:41;;;;;;;;;;;231.30;2252.80;;;;;;5034415;28;19908;-78
2023/01/14 14:24:15;;;;;;;;;;;256.00;2252.80;;;;;;5052833;28;19905;-76
2023/01/14 14:26:41;;;;;;;;;;;256.00;2252.80;;;;;;5034496;28;19959;-78
2023/01/14 14:29:14;;;;;;;;;;;256.00;2252.80;;;;;;5034448;28;20417;-77